Time;durP1;ratioP1;P1;durP2;ratioP2;P2;SDS_P1;SDS_P2;PMS_P1;PMS_P2;Temp;Humidity;BMP_temperature;BMP_pressure;BME280_temperature;BME280_humidity;BME280_pressure;Samples;Min_cycle;Max_cycle;Signal;HPM_P1;HPM_P2
2022/04/19 03:01:18;;;;;;;51.15;25.00;;;7.10;99.90;;;;;;5640596;23;20392;-80
2022/04/19 03:03:44;;;;;;;49.15;22.73;;;7.10;99.90;;;;;;4998100;28;20133;-80
2022/04/19 03:06:10;;;;;;;44.55;20.50;;;7.10;99.90;;;;;;4998570;28;20044;-80
2022/04/19 03:08:35;;;;;;;43.67;20.13;;;7.10;99.90;;;;;;5015112;28;20128;-80
2022/04/19 03:11:02;;;;;;;40.30;19.40;;;7.10;99.90;;;;;;5015225;28;20052;-81
2022/04/19 03:13:28;;;;;;;34.92;18.65;;;7.10;99.90;;;;;;5015065;28;20042;-80
2022/04/19 03:15:54;;;;;;;42.75;20.48;;;7.10;99.90;;;;;;5014980;28;20115;-80
2022/04/19 03:18:20;;;;;;;38.22;18.25;;;7.00;99.90;;;;;;5016485;28;20038;-81
2022/04/19 03:20:46;;;;;;;39.55;18.83;;;7.00;99.90;;;;;;5014792;28;20076;-81
2022/04/19 03:28:45;;;;;;;59.67;24.63;;;6.90;99.90;;;;;;5014763;28;20133;-81
2022/04/19 03:31:12;;;;;;;55.78;26.20;;;6.90;99.90;;;;;;5014949;28;20097;-80
2022/04/19 03:33:39;;;;;;;64.10;28.92;;;6.80;99.90;;;;;;5014846;28;20038;-79
2022/04/19 03:36:05;;;;;;;66.30;29.13;;;6.80;99.90;;;;;;5014597;28;20053;-81
2022/04/19 03:38:31;;;;;;;64.20;28.42;;;6.80;99.90;;;;;;5014807;28;20041;-81
2022/04/19 03:40:57;;;;;;;65.53;30.15;;;6.80;99.90;;;;;;5013635;28;20509;-81
2022/04/19 03:43:23;;;;;;;71.88;32.53;;;6.80;99.90;;;;;;5015984;28;20042;-80
2022/04/19 03:45:49;;;;;;;68.32;31.42;;;6.80;99.90;;;;;;5014854;28;20453;-80
2022/04/19 03:48:15;;;;;;;77.15;31.38;;;6.70;99.90;;;;;;5015875;28;20121;-80
2022/04/19 03:50:41;;;;;;;68.18;30.10;;;6.60;99.90;;;;;;5014759;28;20038;-81
2022/04/19 03:53:07;;;;;;;68.75;32.10;;;6.60;99.90;;;;;;5014251;28;20385;-81
2022/04/19 03:55:33;;;;;;;78.88;34.50;;;6.50;99.90;;;;;;5014044;28;20466;-81
2022/04/19 03:57:59;;;;;;;76.90;32.50;;;6.50;99.90;;;;;;5014328;28;20091;-80
2022/04/19 04:00:24;;;;;;;68.43;31.50;;;6.50;99.90;;;;;;5013424;28;20041;-81
2022/04/19 04:02:50;;;;;;;72.35;32.17;;;6.50;99.90;;;;;;5013526;28;20049;-80
2022/04/19 04:05:16;;;;;;;66.30;30.85;;;6.50;99.90;;;;;;5013700;28;20570;-81
2022/04/19 04:07:42;;;;;;;66.45;31.63;;;6.50;99.90;;;;;;5012978;28;20049;-79
2022/04/19 04:10:08;;;;;;;68.20;29.17;;;6.50;99.90;;;;;;5012869;28;20049;-80
2022/04/19 04:12:34;;;;;;;62.75;28.75;;;6.50;99.90;;;;;;5014084;28;20390;-80
2022/04/19 04:15:01;;;;;;;64.78;27.75;;;6.50;99.90;;;;;;4997970;28;20042;-80
2022/04/19 04:17:27;;;;;;;60.08;26.85;;;6.40;99.90;;;;;;5014989;28;20112;-80
2022/04/19 04:19:52;;;;;;;48.67;23.20;;;6.40;99.90;;;;;;5014649;28;20081;-80
2022/04/19 04:22:18;;;;;;;50.90;23.98;;;6.40;99.90;;;;;;5015050;28;20516;-80
2022/04/19 04:24:44;;;;;;;44.95;21.30;;;6.40;99.90;;;;;;5016505;28;20033;-79
2022/04/19 04:27:10;;;;;;;46.35;20.67;;;6.40;99.90;;;;;;4997361;28;20084;-80
2022/04/19 04:29:36;;;;;;;41.35;20.27;;;6.40;99.90;;;;;;5016320;28;20042;-80
2022/04/19 04:32:04;;;;;;;51.08;21.65;;;6.50;99.90;;;;;;5015168;28;20042;-81
2022/04/19 04:34:30;;;;;;;40.10;19.70;;;6.50;99.90;;;;;;5013598;28;20061;-80
2022/04/19 04:36:58;;;;;;;55.30;24.90;;;6.40;99.90;;;;;;5014351;28;20458;-81
2022/04/19 04:39:24;;;;;;;53.85;23.98;;;6.40;99.90;;;;;;5012550;28;20505;-80
2022/04/19 04:41:49;;;;;;;53.15;24.75;;;6.40;99.90;;;;;;5014545;28;20037;-81
2022/04/19 04:44:15;;;;;;;58.97;26.65;;;6.30;99.90;;;;;;4996732;28;20038;-81
2022/04/19 04:49:35;;;;;;;49.17;24.05;;;6.30;99.90;;;;;;5013398;28;20049;-81
2022/04/19 04:52:05;;;;;;;54.50;24.50;;;6.30;99.90;;;;;;5014861;28;20096;-80
2022/04/19 04:54:30;;;;;;;52.67;24.52;;;6.20;99.90;;;;;;5014453;28;20097;-80
2022/04/19 04:56:56;;;;;;;67.28;29.75;;;6.20;99.90;;;;;;5015296;28;20069;-79
2022/04/19 04:59:21;;;;;;;64.45;29.08;;;6.20;99.90;;;;;;5014649;28;20085;-78
2022/04/19 05:01:47;;;;;;;56.28;27.45;;;6.20;99.90;;;;;;5022528;28;20070;-81
2022/04/19 05:04:13;;;;;;;55.13;25.85;;;6.20;99.90;;;;;;5030940;28;20034;-81
2022/04/19 05:06:38;;;;;;;66.68;27.05;;;6.20;99.90;;;;;;5014986;28;20116;-79
2022/04/19 05:09:04;;;;;;;55.25;25.65;;;6.20;99.90;;;;;;5015361;28;20117;-80
2022/04/19 05:11:30;;;;;;;52.50;24.83;;;6.30;99.90;;;;;;5014335;28;20069;-80
2022/04/19 05:13:55;;;;;;;57.25;26.80;;;6.30;99.90;;;;;;5014132;28;20042;-80
2022/04/19 05:16:21;;;;;;;58.08;26.88;;;6.30;99.90;;;;;;5014280;28;20103;-81
2022/04/19 05:18:47;;;;;;;62.03;28.25;;;6.40;99.90;;;;;;5013791;28;20040;-81
2022/04/19 05:21:13;;;;;;;52.47;24.23;;;6.40;99.90;;;;;;5014570;28;20501;-81
2022/04/19 05:23:39;;;;;;;53.67;23.38;;;6.40;99.90;;;;;;5013032;28;20448;-81
2022/04/19 05:26:04;;;;;;;53.22;25.92;;;6.50;99.90;;;;;;5016518;28;20041;-79
2022/04/19 05:28:30;;;;;;;57.33;28.15;;;6.50;99.90;;;;;;5017331;28;20099;-80
2022/04/19 05:30:56;;;;;;;55.53;26.45;;;6.50;99.90;;;;;;5001064;28;20488;-81
2022/04/19 05:33:22;;;;;;;61.80;26.38;;;6.50;99.90;;;;;;5017912;28;20045;-80
2022/04/19 05:35:47;;;;;;;100.47;38.55;;;6.60;99.90;;;;;;5017265;28;20545;-80
2022/04/19 05:38:13;;;;;;;104.50;38.08;;;6.60;99.90;;;;;;5016977;28;20082;-80
2022/04/19 05:40:40;;;;;;;79.43;32.50;;;6.60;99.90;;;;;;5016903;28;20044;-81
2022/04/19 05:43:06;;;;;;;55.75;25.65;;;6.60;99.90;;;;;;5000146;28;20085;-81
2022/04/19 05:45:32;;;;;;;52.92;22.58;;;6.70;99.90;;;;;;5017115;28;20041;-80
2022/04/19 05:47:57;;;;;;;45.10;20.45;;;6.70;99.90;;;;;;5016300;28;20052;-81
2022/04/19 05:50:23;;;;;;;51.03;22.80;;;6.70;99.90;;;;;;5015803;28;20474;-80
2022/04/19 05:52:49;;;;;;;43.25;21.40;;;6.80;99.90;;;;;;5015982;28;20045;-81
2022/04/19 05:55:15;;;;;;;40.05;19.13;;;6.90;99.90;;;;;;5015787;28;20042;-80
2022/04/19 05:57:40;;;;;;;33.03;15.90;;;6.90;99.90;;;;;;5015795;28;20041;-81
2022/04/19 06:00:07;;;;;;;31.00;15.32;;;7.00;99.90;;;;;;5015822;28;20046;-80
2022/04/19 06:05:16;;;;;;;22.98;12.10;;;7.20;99.90;;;;;;5016013;28;20049;-81
2022/04/19 06:07:44;;;;;;;21.45;11.82;;;7.30;99.90;;;;;;5015951;28;20096;-81
2022/04/19 06:10:10;;;;;;;21.67;11.05;;;7.30;99.90;;;;;;4998914;28;20053;-81
2022/04/19 06:12:36;;;;;;;20.15;11.27;;;7.40;99.90;;;;;;5015521;28;20045;-79
2022/04/19 06:15:02;;;;;;;23.25;11.02;;;7.50;99.90;;;;;;5015007;28;20049;-77
2022/04/19 06:17:32;;;;;;;18.67;10.60;;;7.60;99.90;;;;;;5015236;28;20455;-79
2022/04/19 06:19:58;;;;;;;18.80;10.43;;;7.70;99.90;;;;;;5015574;28;20141;-82
2022/04/19 06:22:24;;;;;;;21.25;9.63;;;7.80;99.90;;;;;;5016743;28;20112;-78
2022/04/19 06:24:49;;;;;;;17.42;10.13;;;7.90;99.90;;;;;;5016004;28;20116;-82
2022/04/19 06:27:15;;;;;;;19.75;9.93;;;7.90;99.90;;;;;;5018330;28;20042;-79
2022/04/19 06:29:40;;;;;;;16.00;9.05;;;8.10;99.90;;;;;;5016611;28;20042;-82
2022/04/19 06:32:06;;;;;;;21.45;9.75;;;8.10;99.90;;;;;;5016299;28;20038;-81
2022/04/19 06:34:32;;;;;;;19.33;10.65;;;8.20;99.90;;;;;;5016524;28;20042;-82
2022/04/19 06:36:57;;;;;;;16.77;10.10;;;8.30;99.90;;;;;;5016952;28;20029;-80
2022/04/19 06:39:23;;;;;;;20.20;10.75;;;8.40;99.90;;;;;;5015285;28;20069;-82
2022/04/19 06:41:50;;;;;;;19.45;10.07;;;8.50;99.90;;;;;;5015200;28;20501;-80
2022/04/19 06:44:17;;;;;;;18.55;10.18;;;8.60;99.90;;;;;;5015919;28;20045;-81
2022/04/19 06:46:47;;;;;;;19.58;10.77;;;8.70;99.90;;;;;;5015346;28;20042;-80
2022/04/19 06:49:13;;;;;;;19.17;10.75;;;8.80;99.90;;;;;;4998642;28;20080;-79
2022/04/19 06:51:39;;;;;;;16.10;9.55;;;8.90;99.90;;;;;;5014757;28;20041;-82
2022/04/19 06:54:06;;;;;;;17.23;10.30;;;9.00;99.90;;;;;;5016332;28;20470;-82
2022/04/19 06:56:32;;;;;;;19.25;10.38;;;9.10;99.90;;;;;;5015166;28;20389;-82
2022/04/19 06:58:58;;;;;;;16.35;10.57;;;9.20;99.90;;;;;;5015967;28;20124;-81
2022/04/19 07:01:23;;;;;;;18.00;9.93;;;9.30;99.90;;;;;;5015289;28;20053;-81
2022/04/19 07:03:49;;;;;;;17.48;9.82;;;9.50;99.90;;;;;;4998446;28;20086;-80
2022/04/19 07:06:15;;;;;;;17.67;9.40;;;9.50;99.90;;;;;;5014592;28;20041;-80
2022/04/19 07:08:40;;;;;;;18.50;9.68;;;9.60;99.90;;;;;;5014219;28;20041;-81
2022/04/19 07:11:07;;;;;;;16.67;9.27;;;9.80;99.90;;;;;;5015619;28;20046;-81
2022/04/19 07:13:33;;;;;;;17.00;9.43;;;9.90;99.90;;;;;;5014178;28;20046;-81
2022/04/19 07:15:59;;;;;;;15.82;8.35;;;10.00;99.90;;;;;;5014649;28;20037;-80
2022/04/19 07:18:25;;;;;;;20.30;9.65;;;10.10;99.90;;;;;;5015734;28;20034;-81
2022/04/19 07:26:37;;;;;;;14.13;8.35;;;10.40;99.90;;;;;;5014202;28;20123;-82
2022/04/19 07:29:13;;;;;;;14.40;7.97;;;10.60;99.90;;;;;;5014010;28;20082;-82
2022/04/19 07:31:39;;;;;;;;;;;10.70;99.90;;;;;;5014708;28;20108;-80
2022/04/19 07:34:06;;;;;;;12.23;7.25;;;10.80;99.90;;;;;;5014120;28;19953;-82
2022/04/19 07:36:33;;;;;;;12.60;7.43;;;10.90;99.90;;;;;;5016204;28;20096;-82
2022/04/19 07:38:59;;;;;;;17.63;7.82;;;11.10;99.90;;;;;;5016488;28;20152;-82
2022/04/19 07:41:25;;;;;;;19.85;7.90;;;11.20;99.90;;;;;;5014809;28;20492;-81
2022/04/19 07:43:52;;;;;;;13.93;8.05;;;11.30;99.90;;;;;;5014251;28;20091;-82
2022/04/19 07:46:18;;;;;;;12.93;7.57;;;11.40;99.90;;;;;;5015318;28;20044;-79
2022/04/19 07:48:45;;;;;;;13.63;7.55;;;11.50;99.90;;;;;;4997613;28;20042;-83
2022/04/19 07:51:14;;;;;;;14.98;7.97;;;11.60;99.90;;;;;;5014300;28;20482;-81
2022/04/19 07:53:40;;;;;;;13.10;7.22;;;11.80;99.90;;;;;;5015341;28;20104;-80
2022/04/19 07:56:06;;;;;;;12.10;6.93;;;12.00;99.90;;;;;;5015312;28;20042;-80
2022/04/19 07:58:32;;;;;;;13.07;7.32;;;12.20;99.90;;;;;;5015058;28;20115;-82
2022/04/19 08:00:58;;;;;;;12.57;7.07;;;12.30;99.90;;;;;;5014569;28;20053;-81
2022/04/19 08:03:24;;;;;;;16.30;7.38;;;12.50;99.90;;;;;;5014827;28;20469;-82
2022/04/19 08:05:51;;;;;;;13.63;7.00;;;12.70;99.90;;;;;;5015076;28;20045;-82
2022/04/19 08:08:18;;;;;;;14.40;6.75;;;12.80;99.90;;;;;;5016236;28;20080;-80
2022/04/19 08:10:44;;;;;;;13.70;7.03;;;12.90;99.90;;;;;;5015695;28;20415;-81
2022/04/19 08:13:10;;;;;;;11.27;6.28;;;13.00;99.90;;;;;;5015204;28;20030;-79
2022/04/19 08:15:36;;;;;;;11.40;6.47;;;13.10;99.90;;;;;;5013398;28;20108;-81
2022/04/19 08:18:02;;;;;;;13.48;6.68;;;13.30;99.90;;;;;;5012214;28;20053;-79
2022/04/19 08:20:28;;;;;;;12.52;6.50;;;13.50;99.90;;;;;;5012041;28;20046;-81
2022/04/19 08:22:53;;;;;;;15.75;6.85;;;13.50;99.90;;;;;;5012352;28;20192;-81
2022/04/19 08:25:19;;;;;;;14.77;7.15;;;13.70;99.90;;;;;;5012069;28;20052;-81
2022/04/19 08:27:48;;;;;;;13.00;6.88;;;13.80;99.90;;;;;;5012134;28;20069;-80
2022/04/19 08:30:18;;;;;;;12.15;6.07;;;13.90;99.90;;;;;;5011958;28;20399;-81
2022/04/19 08:32:48;;;;;;;11.90;6.22;;;14.20;99.90;;;;;;5011979;28;20088;-80
2022/04/19 08:35:14;;;;;;;13.18;6.15;;;14.90;99.90;;;;;;5012218;28;20046;-81
2022/04/19 08:37:39;;;;;;;12.85;6.45;;;15.50;99.90;;;;;;5012493;28;20037;-80
2022/04/19 08:40:08;;;;;;;9.52;5.53;;;16.20;99.90;;;;;;5012022;28;20134;-80
2022/04/19 08:42:39;;;;;;;23.23;6.28;;;16.70;99.90;;;;;;4995605;28;20111;-81
2022/04/19 08:45:07;;;;;;;11.70;6.10;;;17.30;99.90;;;;;;5012122;28;20046;-80
2022/04/19 08:47:36;;;;;;;12.45;5.85;;;17.70;99.90;;;;;;5012135;28;20041;-82
2022/04/19 08:50:07;;;;;;;12.77;5.97;;;18.00;99.70;;;;;;5012213;28;20089;-79
2022/04/19 08:52:34;;;;;;;11.10;5.78;;;18.30;99.00;;;;;;5011716;28;20042;-80
2022/04/19 08:57:44;;;;;;;9.40;4.88;;;18.70;97.40;;;;;;5011799;28;20042;-80
2022/04/19 09:00:11;;;;;;;10.52;5.22;;;18.50;97.70;;;;;;4995879;28;20092;-82
2022/04/19 09:02:37;;;;;;;10.23;4.78;;;18.10;98.10;;;;;;5015642;28;20049;-80
2022/04/19 09:05:23;;;;;;;8.23;4.40;;;18.20;98.30;;;;;;5015896;28;20044;-81
2022/04/19 09:07:54;;;;;;;9.80;4.93;;;18.50;96.90;;;;;;5017399;28;20362;-80
2022/04/19 09:10:31;;;;;;;11.05;6.93;;;18.90;97.30;;;;;;5018376;28;20053;-80
2022/04/19 09:13:10;;;;;;;9.15;4.50;;;19.20;95.70;;;;;;5016730;28;20033;-81
2022/04/19 09:15:45;;;;;;;8.50;3.70;;;19.30;93.90;;;;;;5017082;28;20071;-80
2022/04/19 09:18:26;;;;;;;8.48;4.57;;;19.30;93.10;;;;;;5017542;28;20616;-80
2022/04/19 09:20:52;;;;;;;7.03;3.90;;;19.40;92.20;;;;;;5016740;28;20454;-80
2022/04/19 09:23:19;;;;;;;7.47;3.95;;;19.10;91.70;;;;;;5000286;28;20052;-80
2022/04/19 09:25:45;;;;;;;8.60;3.85;;;18.70;93.10;;;;;;5016863;28;20048;-81
2022/04/19 09:28:16;;;;;;;7.10;3.60;;;18.40;92.50;;;;;;5016605;28;20072;-81
2022/04/19 09:30:43;;;;;;;7.10;3.92;;;18.20;91.90;;;;;;5018231;28;20437;-81
2022/04/19 09:33:12;;;;;;;8.80;4.25;;;18.10;93.10;;;;;;5017771;28;20052;-81
2022/04/19 09:35:44;;;;;;;7.25;3.85;;;18.00;93.10;;;;;;5015966;28;20034;-81
2022/04/19 09:38:10;;;;;;;7.65;4.20;;;17.90;92.10;;;;;;5016131;28;20037;-82
2022/04/19 09:40:44;;;;;;;8.20;4.13;;;17.90;93.60;;;;;;5016166;28;20073;-82
2022/04/19 09:43:11;;;;;;;8.60;3.83;;;18.10;93.30;;;;;;5016134;28;20052;-82
2022/04/19 09:45:58;;;;;;;7.22;3.85;;;18.10;92.10;;;;;;5016041;28;20044;-80
2022/04/19 09:48:29;;;;;;;5.53;3.50;;;18.40;92.20;;;;;;5016185;28;20459;-80
2022/04/19 09:51:03;;;;;;;5.97;3.05;;;18.50;91.10;;;;;;5016072;28;20092;-80
2022/04/19 09:53:40;;;;;;;5.78;3.17;;;18.70;90.80;;;;;;5028693;28;20033;-76
2022/04/19 09:56:11;;;;;;;4.72;2.63;;;18.80;89.90;;;;;;5029051;28;20052;-76
2022/04/19 09:58:38;;;;;;;4.20;1.98;;;19.00;88.40;;;;;;5016270;28;20525;-81
2022/04/19 10:01:04;;;;;;;4.18;1.88;;;19.00;86.90;;;;;;5016252;28;20072;-79
2022/04/19 10:09:21;;;;;;;2.83;1.90;;;19.30;83.40;;;;;;4940956;29;20051;-80
2022/04/19 10:11:48;;;;;;;4.05;2.30;;;19.30;82.50;;;;;;4984008;28;20073;-82
2022/04/19 10:14:16;;;;;;;4.13;2.00;;;19.40;81.20;;;;;;4999179;28;20073;-81
2022/04/19 10:16:42;;;;;;;3.80;2.00;;;19.40;80.00;;;;;;5017233;28;20029;-83
2022/04/19 10:19:09;;;;;;;4.00;1.60;;;19.40;78.40;;;;;;5015440;28;20053;-84
2022/04/19 10:21:41;;;;;;;3.40;1.88;;;19.50;78.60;;;;;;5015253;28;20045;-82
2022/04/19 10:24:10;;;;;;;3.20;2.17;;;19.60;77.60;;;;;;5015287;28;20045;-80
2022/04/19 10:26:43;;;;;;;4.30;1.70;;;19.70;74.80;;;;;;5016587;28;20080;-82
2022/04/19 10:29:34;;;;;;;3.38;1.58;;;19.70;70.50;;;;;;5015333;28;20050;-81
2022/04/19 10:32:07;;;;;;;5.82;1.48;;;19.80;68.30;;;;;;4998823;28;20042;-80
2022/04/19 10:34:35;;;;;;;2.20;1.13;;;19.70;69.10;;;;;;5015040;28;20037;-80
2022/04/19 10:37:15;;;;;;;4.95;1.40;;;19.80;64.40;;;;;;5014943;28;20038;-80
2022/04/19 10:39:45;;;;;;;3.58;1.52;;;19.80;62.10;;;;;;5015534;28;20038;-79
2022/04/19 10:42:33;;;;;;;3.75;1.60;;;19.90;61.80;;;;;;4998692;28;20464;-80
2022/04/19 10:45:13;;;;;;;3.05;1.25;;;20.00;62.60;;;;;;5014963;28;20058;-81
2022/04/19 10:47:51;;;;;;;2.15;0.98;;;20.10;59.50;;;;;;5014835;28;20046;-81
2022/04/19 10:50:40;;;;;;;2.38;1.10;;;20.00;57.90;;;;;;5014560;28;20042;-80
2022/04/19 10:53:07;;;;;;;3.65;0.90;;;20.10;58.10;;;;;;5014525;28;20042;-80
2022/04/19 10:55:37;;;;;;;2.80;1.10;;;20.00;58.20;;;;;;4998662;28;20385;-80
2022/04/19 10:58:12;;;;;;;4.38;1.33;;;20.20;58.80;;;;;;5014316;28;20042;-81
2022/04/19 11:00:48;;;;;;;4.13;1.20;;;20.30;58.20;;;;;;5014204;28;20045;-80
2022/04/19 11:03:20;;;;;;;3.58;1.30;;;20.50;57.00;;;;;;5014185;28;20054;-80
2022/04/19 11:05:46;;;;;;;2.67;1.15;;;20.70;56.90;;;;;;5014425;28;20073;-81
2022/04/19 11:08:30;;;;;;;3.10;1.30;;;20.80;56.90;;;;;;5014104;28;20061;-81
2022/04/19 11:10:55;;;;;;;3.00;1.27;;;20.90;53.30;;;;;;4997593;28;20050;-79
2022/04/19 11:13:40;;;;;;;5.30;1.63;;;20.80;55.10;;;;;;5014490;28;20505;-81
2022/04/19 11:16:06;;;;;;;6.30;1.55;;;20.80;55.70;;;;;;5013858;28;20042;-81
2022/04/19 11:18:55;;;;;;;3.17;1.38;;;20.90;56.00;;;;;;5014127;28;20043;-79
2022/04/19 11:21:48;;;;;;;2.55;1.38;;;21.10;55.50;;;;;;4997925;28;20054;-81
2022/04/19 11:24:53;;;;;;;5.25;1.73;;;21.20;54.20;;;;;;4997161;28;20054;-80
2022/04/19 11:27:19;;;;;;;3.63;1.60;;;21.40;56.00;;;;;;5014041;28;20053;-79
2022/04/19 11:29:51;;;;;;;9.18;5.00;;;21.20;53.10;;;;;;5013945;28;20053;-82
2022/04/19 11:32:25;;;;;;;2.72;1.70;;;21.00;51.50;;;;;;5013301;28;20120;-81
2022/04/19 11:35:01;;;;;;;3.47;1.83;;;20.80;52.50;;;;;;5013568;28;20069;-81
2022/04/19 11:37:27;;;;;;;2.88;1.42;;;20.90;53.10;;;;;;5013499;28;20367;-81
2022/04/19 11:48:10;;;;;;;6.25;1.40;;;21.20;52.20;;;;;;5013759;28;20460;-80
2022/04/19 11:50:36;;;;;;;5.95;1.60;;;21.00;50.60;;;;;;5013287;28;20187;-80
2022/04/19 11:53:02;;;;;;;3.78;1.50;;;21.00;53.00;;;;;;4997532;28;20390;-80
2022/04/19 11:55:27;;;;;;;4.05;1.67;;;21.20;54.00;;;;;;4997286;28;20030;-79
2022/04/19 11:58:04;;;;;;;6.40;1.75;;;21.30;53.10;;;;;;5013507;28;20188;-81
2022/04/19 12:00:31;;;;;;;2.80;1.70;;;21.10;52.30;;;;;;5013151;28;20045;-81
2022/04/19 12:02:57;;;;;;;5.40;1.60;;;21.20;52.70;;;;;;5013604;28;20083;-81
2022/04/19 12:05:26;;;;;;;6.70;1.77;;;21.20;53.70;;;;;;5013793;28;20042;-79
2022/04/19 12:07:53;;;;;;;3.97;1.88;;;21.60;53.50;;;;;;5013513;28;20069;-82
2022/04/19 12:10:19;;;;;;;3.47;2.00;;;21.70;54.00;;;;;;5013492;28;20041;-81
2022/04/19 12:12:46;;;;;;;3.25;2.20;;;22.00;53.10;;;;;;5013144;28;20068;-80
2022/04/19 12:15:12;;;;;;;4.75;1.80;;;21.70;53.10;;;;;;5013393;28;20454;-81
2022/04/19 12:17:47;;;;;;;3.25;1.85;;;21.90;53.90;;;;;;4996943;28;20044;-78
2022/04/19 12:20:14;;;;;;;;;;;22.20;54.70;;;;;;5013807;28;20042;-80
2022/04/19 12:22:47;;;;;;;4.97;1.70;;;22.50;53.60;;;;;;5013320;28;19917;-79
2022/04/19 12:25:22;;;;;;;2.58;1.60;;;22.60;52.30;;;;;;4997331;28;20486;-81
2022/04/19 12:27:51;;;;;;;5.68;1.63;;;22.60;52.60;;;;;;5014925;28;20041;-80
2022/04/19 12:30:17;;;;;;;4.03;1.77;;;22.50;51.70;;;;;;5013476;28;20069;-80
2022/04/19 12:32:59;;;;;;;4.00;1.65;;;22.60;52.40;;;;;;4997241;28;20117;-80
2022/04/19 12:35:26;;;;;;;4.38;1.65;;;22.60;53.60;;;;;;5013024;28;20041;-81
2022/04/19 12:38:13;;;;;;;4.10;1.90;;;22.60;53.00;;;;;;4997210;28;20088;-82
2022/04/19 12:40:40;;;;;;;3.08;2.00;;;22.70;52.30;;;;;;5013442;28;20045;-80
2022/04/19 12:43:07;;;;;;;3.15;2.05;;;22.80;52.30;;;;;;5013909;28;20053;-81
2022/04/19 12:45:36;;;;;;;5.35;1.85;;;22.80;52.50;;;;;;5013126;28;20073;-78
2022/04/19 12:48:04;;;;;;;6.05;1.92;;;22.90;52.40;;;;;;5013631;28;20449;-81
2022/04/19 12:50:30;;;;;;;7.40;1.95;;;22.80;52.90;;;;;;4996607;28;20052;-81
2022/04/19 12:52:55;;;;;;;2.85;1.67;;;22.80;52.90;;;;;;5013577;28;20490;-81
2022/04/19 12:55:29;;;;;;;6.70;2.13;;;22.80;52.30;;;;;;5013299;28;20088;-79
2022/04/19 12:58:10;;;;;;;3.13;1.70;;;22.90;52.30;;;;;;5013346;28;20109;-79
2022/04/19 13:00:36;;;;;;;5.57;1.98;;;23.00;52.60;;;;;;5014660;28;20041;-81
2022/04/19 13:03:03;;;;;;;6.03;1.80;;;23.10;51.60;;;;;;5013252;28;20048;-80
2022/04/19 13:13:41;;;;;;;6.90;2.58;;;23.10;52.00;;;;;;5012986;28;20044;-82
2022/04/19 13:16:07;;;;;;;5.20;2.20;;;23.20;51.30;;;;;;5013832;28;20093;-81
2022/04/19 13:18:32;;;;;;;5.05;2.05;;;23.10;51.60;;;;;;5012667;28;20037;-83
2022/04/19 13:20:58;;;;;;;6.10;2.63;;;23.30;51.60;;;;;;5012665;28;20046;-80
2022/04/19 13:23:24;;;;;;;5.18;2.50;;;23.20;52.00;;;;;;5013321;28;20046;-82
2022/04/19 13:25:49;;;;;;;6.47;2.40;;;23.40;52.20;;;;;;5013247;28;20049;-81
2022/04/19 13:28:15;;;;;;;7.50;2.40;;;23.30;52.00;;;;;;5013027;28;20461;-82
2022/04/19 13:30:43;;;;;;;4.25;1.95;;;23.30;51.70;;;;;;5013021;28;20034;-82
2022/04/19 13:33:09;;;;;;;6.13;1.80;;;23.30;51.50;;;;;;5013011;28;20396;-80
2022/04/19 13:35:34;;;;;;;4.03;1.98;;;23.30;51.40;;;;;;5013165;28;20038;-80
2022/04/19 13:40:44;;;;;;;4.35;1.90;;;23.10;50.40;;;;;;5012734;28;20516;-80
2022/04/19 13:43:09;;;;;;;5.40;2.13;;;23.20;50.00;;;;;;4996128;28;20137;-82
2022/04/19 13:45:36;;;;;;;5.45;2.10;;;23.30;50.70;;;;;;5014435;28;20034;-83
2022/04/19 13:48:02;;;;;;;5.57;1.75;;;23.30;50.80;;;;;;5014269;28;20473;-81
2022/04/19 13:50:27;;;;;;;3.60;1.52;;;23.20;50.00;;;;;;5015894;28;20041;-81
2022/04/19 13:52:54;;;;;;;3.78;1.88;;;23.20;50.60;;;;;;5016190;28;20042;-81
2022/04/19 13:55:21;;;;;;;2.65;1.55;;;23.20;50.60;;;;;;5017589;28;20060;-83
2022/04/19 13:57:49;;;;;;;4.40;1.60;;;23.30;51.20;;;;;;5016217;28;20046;-82
2022/04/19 14:00:16;;;;;;;4.57;1.50;;;23.40;50.00;;;;;;5016122;28;20046;-82
2022/04/19 14:02:43;;;;;;;4.18;1.63;;;23.60;50.60;;;;;;5016176;28;20081;-80
2022/04/19 14:05:10;;;;;;;4.22;1.45;;;23.40;49.20;;;;;;5015839;28;20566;-81
2022/04/19 14:07:36;;;;;;;5.40;1.50;;;23.50;49.50;;;;;;5015710;28;20045;-81
2022/04/19 14:10:04;;;;;;;4.60;1.45;;;23.60;49.80;;;;;;4998978;28;20394;-81
2022/04/19 14:12:30;;;;;;;3.83;1.40;;;23.40;49.60;;;;;;5015160;28;20041;-80
2022/04/19 14:14:55;;;;;;;3.30;1.70;;;23.70;50.40;;;;;;5015425;28;20437;-82
2022/04/19 14:17:22;;;;;;;5.32;1.88;;;23.80;50.10;;;;;;5015045;28;20208;-82
2022/04/19 14:19:51;;;;;;;4.75;1.90;;;23.90;49.10;;;;;;5015508;28;20057;-79
2022/04/19 14:22:17;;;;;;;5.35;2.05;;;23.90;48.80;;;;;;5014957;28;20481;-82
2022/04/19 14:24:43;;;;;;;3.47;1.80;;;24.20;49.10;;;;;;4999084;28;20038;-82
2022/04/19 14:27:08;;;;;;;5.03;2.00;;;24.30;49.50;;;;;;5014973;28;20045;-81
2022/04/19 14:35:03;;;;;;;6.78;1.95;;;24.30;49.50;;;;;;5015733;28;20050;-80
2022/04/19 14:37:28;;;;;;;4.82;1.80;;;24.20;48.90;;;;;;5015432;28;20512;-82
2022/04/19 14:39:54;;;;;;;4.03;2.00;;;24.00;48.60;;;;;;5016768;28;20030;-83
2022/04/19 14:42:19;;;;;;;5.10;2.38;;;23.70;49.20;;;;;;5015383;28;20173;-81
2022/04/19 14:44:45;;;;;;;5.25;2.40;;;23.90;49.50;;;;;;5015504;28;20042;-80
2022/04/19 14:47:11;;;;;;;5.45;2.80;;;23.90;49.60;;;;;;5015352;28;20042;-80
2022/04/19 14:49:37;;;;;;;5.38;3.05;;;24.10;49.70;;;;;;5015317;28;20068;-80
2022/04/19 14:52:14;;;;;;;3.20;2.13;;;24.10;50.30;;;;;;5014449;28;20077;-82
2022/04/19 14:54:45;;;;;;;4.00;2.50;;;24.00;50.70;;;;;;5015069;28;20042;-81
2022/04/19 14:57:12;;;;;;;6.88;2.75;;;23.50;49.30;;;;;;5014752;28;20045;-82
2022/04/19 14:59:37;;;;;;;6.72;2.20;;;23.10;49.60;;;;;;4998799;28;20072;-79
2022/04/19 15:02:04;;;;;;;4.90;2.40;;;23.00;50.90;;;;;;5014713;28;20050;-82
2022/04/19 15:04:30;;;;;;;4.13;2.50;;;23.10;50.20;;;;;;5014854;28;20504;-83
2022/04/19 15:06:56;;;;;;;6.20;2.50;;;23.40;50.40;;;;;;4998826;28;20140;-80
2022/04/19 15:09:22;;;;;;;4.18;2.63;;;23.60;49.70;;;;;;5014936;28;20050;-80
2022/04/19 15:11:47;;;;;;;6.57;3.47;;;23.60;49.20;;;;;;5014926;28;20042;-80
2022/04/19 15:14:13;;;;;;;6.10;2.97;;;23.70;49.00;;;;;;5014774;28;20060;-83
2022/04/19 15:16:39;;;;;;;4.93;2.47;;;23.80;49.10;;;;;;5014895;28;20394;-82
2022/04/19 15:19:04;;;;;;;4.50;2.60;;;23.70;49.80;;;;;;5016145;28;20045;-81
2022/04/19 15:21:30;;;;;;;5.70;2.30;;;23.80;49.70;;;;;;5014064;28;20049;-80
2022/04/19 15:23:56;;;;;;;5.30;2.13;;;23.70;49.30;;;;;;5014506;28;20057;-81
2022/04/19 15:26:22;;;;;;;5.30;2.15;;;23.70;49.30;;;;;;5014860;28;20120;-80
2022/04/19 15:28:51;;;;;;;3.25;2.30;;;23.90;48.70;;;;;;5015588;28;20100;-80
2022/04/19 15:31:17;;;;;;;3.92;2.50;;;23.90;48.50;;;;;;5015644;28;20046;-82
2022/04/19 15:33:42;;;;;;;4.80;2.47;;;23.90;48.30;;;;;;5014252;28;20149;-83
2022/04/19 15:36:08;;;;;;;4.00;2.60;;;23.90;48.80;;;;;;5015690;28;20038;-82
2022/04/19 15:38:34;;;;;;;4.45;2.17;;;23.60;48.70;;;;;;5015118;28;20101;-82
2022/04/19 15:40:59;;;;;;;5.35;2.83;;;23.50;49.10;;;;;;5014442;28;20052;-82
2022/04/19 15:43:25;;;;;;;4.93;2.60;;;23.30;49.30;;;;;;5014165;28;20088;-81
2022/04/19 15:45:51;;;;;;;4.65;2.80;;;23.30;49.20;;;;;;5014052;28;20046;-82
2022/04/19 15:48:17;;;;;;;4.30;2.95;;;23.30;50.00;;;;;;5016060;28;20118;-81
2022/04/19 15:50:45;;;;;;;5.53;3.00;;;23.40;49.60;;;;;;5015390;28;20495;-78
2022/04/19 15:53:14;;;;;;;6.97;3.00;;;23.20;49.90;;;;;;5015138;28;20038;-78
2022/04/19 15:55:40;;;;;;;10.07;3.70;;;23.20;50.20;;;;;;5014041;28;20061;-80
2022/04/19 15:58:06;;;;;;;5.70;3.60;;;23.20;50.20;;;;;;5015273;28;20117;-82
2022/04/19 16:00:32;;;;;;;6.10;3.92;;;23.20;50.50;;;;;;5013691;28;20084;-79
2022/04/19 16:02:57;;;;;;;9.13;3.35;;;23.20;50.40;;;;;;5013704;28;20052;-78
2022/04/19 16:05:23;;;;;;;4.95;3.28;;;23.10;50.50;;;;;;4997557;28;20037;-80
2022/04/19 16:07:49;;;;;;;6.30;3.53;;;23.10;52.00;;;;;;5013634;28;20042;-79
2022/04/19 16:10:15;;;;;;;5.55;3.08;;;22.80;50.70;;;;;;4995762;28;20041;-83
2022/04/19 16:12:45;;;;;;;5.47;3.50;;;22.70;50.50;;;;;;5014786;28;20046;-79
2022/04/19 16:15:16;;;;;;;4.80;2.97;;;22.60;50.70;;;;;;5013594;28;20042;-80
2022/04/19 16:23:21;;;;;;;7.05;2.90;;;22.40;51.70;;;;;;5015138;28;20077;-77
2022/04/19 16:25:55;;;;;;;7.15;3.95;;;22.40;51.50;;;;;;5013410;28;20064;-80
2022/04/19 16:28:26;;;;;;;7.93;3.50;;;22.30;51.90;;;;;;5013564;28;20037;-80
2022/04/19 16:30:54;;;;;;;6.03;4.00;;;22.20;52.20;;;;;;5014102;28;20046;-82
2022/04/19 16:33:20;;;;;;;5.28;3.40;;;22.10;51.90;;;;;;5013432;28;20117;-80
2022/04/19 16:35:47;;;;;;;5.85;3.38;;;21.90;52.20;;;;;;5013270;28;20117;-82
2022/04/19 16:38:13;;;;;;;7.18;3.50;;;21.70;52.20;;;;;;5013100;28;20045;-81
2022/04/19 16:40:40;;;;;;;4.63;3.15;;;21.70;52.10;;;;;;5013624;28;20375;-80
2022/04/19 16:43:12;;;;;;;5.18;3.08;;;21.70;52.40;;;;;;4997330;28;20335;-79